createdAt,value
2018-01-03T00:03:10.201Z,79.70
2018-01-03T00:05:37.869Z,79.70
2018-01-03T00:08:05.436Z,79.70
2018-01-03T00:10:32.992Z,79.70
2018-01-03T00:13:01.377Z,79.80
2018-01-03T00:15:28.907Z,79.70
2018-01-03T00:17:56.480Z,79.70
2018-01-03T00:20:24.053Z,79.70
2018-01-03T00:22:52.388Z,79.80
2018-01-03T00:25:19.917Z,79.70
2018-01-03T00:27:47.500Z,79.70
2018-01-03T00:30:15.077Z,79.70
2018-01-03T00:32:44.221Z,79.80
2018-01-03T00:35:11.812Z,79.70
2018-01-03T00:37:39.349Z,79.70
2018-01-03T00:40:06.873Z,79.70
2018-01-03T00:42:34.455Z,79.70
2018-01-03T00:45:01.993Z,79.70
2018-01-03T00:47:29.600Z,79.70
2018-01-03T00:49:57.129Z,79.70
2018-01-03T00:52:24.724Z,79.70
2018-01-03T00:54:52.293Z,79.60
2018-01-03T00:57:19.826Z,79.60
2018-01-03T00:59:47.609Z,79.60
2018-01-03T01:02:15.149Z,79.60
2018-01-03T01:04:42.733Z,79.60
2018-01-03T01:07:10.264Z,79.60
2018-01-03T01:09:37.825Z,79.60
2018-01-03T01:12:05.445Z,79.60
2018-01-03T01:14:33.224Z,79.60
2018-01-03T01:17:01.533Z,79.70
2018-01-03T01:19:29.064Z,79.60
2018-01-03T01:21:56.644Z,79.70
2018-01-03T01:24:24.202Z,79.70
2018-01-03T01:26:51.780Z,79.70
2018-01-03T01:29:19.321Z,79.70
2018-01-03T01:31:47.095Z,79.70
2018-01-03T01:34:14.624Z,79.70
2018-01-03T01:36:42.156Z,79.70
2018-01-03T01:39:09.726Z,79.70
2018-01-03T01:41:37.369Z,79.70
2018-01-03T01:44:04.937Z,79.70
2018-01-03T01:46:32.477Z,79.70
2018-01-03T01:49:07.905Z,79.70
2018-01-03T01:51:35.446Z,79.70
2018-01-03T01:54:03.021Z,79.70
2018-01-03T01:56:30.563Z,79.70
2018-01-03T01:58:58.104Z,79.70
2018-01-03T02:01:25.693Z,79.80
2018-01-03T02:03:53.220Z,79.80
2018-01-03T02:08:55.709Z,79.40
2018-01-03T02:11:24.040Z,79.10
2018-01-03T02:13:51.577Z,79.10
2018-01-03T02:16:19.248Z,79.20
2018-01-03T02:18:46.813Z,79.20
2018-01-03T02:21:14.359Z,79.20
2018-01-03T02:23:42.063Z,79.10
2018-01-03T02:26:09.600Z,79.20
2018-01-03T02:28:37.403Z,78.90
2018-01-03T02:31:05.725Z,78.90
2018-01-03T02:33:33.288Z,78.90
2018-01-03T02:36:00.819Z,79.00
2018-01-03T02:38:31.825Z,78.90
2018-01-03T02:40:59.603Z,79.00
2018-01-03T02:43:28.161Z,78.90
2018-01-03T02:45:55.739Z,78.90
2018-01-03T02:48:24.057Z,79.10
2018-01-03T02:50:51.604Z,79.10
2018-01-03T02:53:19.196Z,79.00
2018-01-03T02:55:46.728Z,79.20
2018-01-03T02:58:14.536Z,79.10
2018-01-03T03:00:42.062Z,79.00
2018-01-03T03:03:09.569Z,79.10
2018-01-03T03:05:37.152Z,79.20
2018-01-03T03:08:04.878Z,79.20
2018-01-03T03:10:32.449Z,79.40
2018-01-03T03:12:59.997Z,79.40
2018-01-03T03:15:27.536Z,79.30
2018-01-03T03:17:55.113Z,79.20
2018-01-03T03:20:22.649Z,79.10
2018-01-03T03:22:50.212Z,79.70
2018-01-03T03:25:17.747Z,78.90
2018-01-03T03:27:45.273Z,78.80
2018-01-03T03:30:12.849Z,78.70
2018-01-03T03:32:41.191Z,78.60
2018-01-03T03:35:08.769Z,78.50
2018-01-03T03:37:37.080Z,78.40
2018-01-03T03:40:04.664Z,78.30
2018-01-03T03:42:32.211Z,78.30
2018-01-03T03:45:00.138Z,78.30
2018-01-03T03:47:27.669Z,78.10
2018-01-03T03:49:55.229Z,78.10
2018-01-03T03:52:22.812Z,77.90
2018-01-03T03:54:51.130Z,78.00
2018-01-03T03:57:18.701Z,78.00
2018-01-03T03:59:46.254Z,77.90
2018-01-03T04:02:13.833Z,77.90
2018-01-03T04:04:41.373Z,78.00
2018-01-03T04:07:08.953Z,78.10
2018-01-03T04:09:36.483Z,78.10
2018-01-03T04:12:04.018Z,78.30
2018-01-03T04:14:31.609Z,78.50
2018-01-03T04:16:59.135Z,78.60
2018-01-03T04:19:26.743Z,78.80
2018-01-03T04:21:54.294Z,78.90
2018-01-03T04:24:22.165Z,79.10
2018-01-03T04:26:49.690Z,79.50
2018-01-03T04:29:17.220Z,79.80
2018-01-03T04:31:44.792Z,79.90
2018-01-03T04:34:13.141Z,80.50
2018-01-03T04:36:40.707Z,80.40
2018-01-03T04:39:08.241Z,80.10
2018-01-03T04:41:36.223Z,80.40
2018-01-03T04:44:04.362Z,80.40
2018-01-03T04:46:31.928Z,80.40
2018-01-03T04:48:59.519Z,80.50
2018-01-03T04:51:27.059Z,80.50
2018-01-03T04:53:54.765Z,80.40
2018-01-03T04:56:23.064Z,80.50
2018-01-03T04:58:50.669Z,80.40
2018-01-03T05:01:18.209Z,80.50
2018-01-03T05:03:45.753Z,80.50
2018-01-03T05:06:13.321Z,80.40
2018-01-03T05:08:40.881Z,80.50
2018-01-03T05:11:08.449Z,80.50
2018-01-03T05:13:36.009Z,81.10
2018-01-03T05:16:03.597Z,80.50
2018-01-03T05:18:31.138Z,80.50
2018-01-03T05:20:58.660Z,80.50
2018-01-03T05:23:26.231Z,80.60
2018-01-03T05:25:53.773Z,80.70
2018-01-03T05:28:21.335Z,80.60
2018-01-03T05:30:48.893Z,81.10
2018-01-03T05:33:16.492Z,81.10
2018-01-03T05:35:44.046Z,81.30
2018-01-03T05:38:11.601Z,81.30
2018-01-03T05:40:39.176Z,81.10
2018-01-03T05:43:06.718Z,81.80
2018-01-03T05:45:34.305Z,82.30
2018-01-03T05:48:01.846Z,82.40
2018-01-03T05:50:29.449Z,83.00
2018-01-03T05:52:57.004Z,83.90
2018-01-03T05:55:25.492Z,83.80
2018-01-03T05:57:53.850Z,83.70
2018-01-03T06:00:21.388Z,83.60
2018-01-03T06:02:48.968Z,83.90
2018-01-03T06:05:16.510Z,83.90
2018-01-03T06:07:44.097Z,83.90
2018-01-03T06:10:11.636Z,83.90
2018-01-03T06:12:39.546Z,84.20
2018-01-03T06:15:07.090Z,83.80
2018-01-03T06:17:34.628Z,83.90
2018-01-03T06:20:02.265Z,84.10
2018-01-03T06:22:29.799Z,84.30
2018-01-03T06:24:57.432Z,84.70
2018-01-03T06:27:25.746Z,84.70
2018-01-03T06:29:53.368Z,84.70
2018-01-03T06:32:20.965Z,84.70
2018-01-03T06:34:48.544Z,84.70
2018-01-03T06:37:16.064Z,84.70
2018-01-03T06:39:43.599Z,84.70
2018-01-03T06:42:11.929Z,85.00
2018-01-03T06:44:39.467Z,84.90
2018-01-03T06:47:07.045Z,85.80
2018-01-03T06:49:34.740Z,85.80
2018-01-03T06:52:03.772Z,85.80
2018-01-03T06:54:31.341Z,85.80
2018-01-03T06:56:58.871Z,85.80
2018-01-03T06:59:27.229Z,86.20
2018-01-03T07:01:54.775Z,86.20
2018-01-03T07:04:22.352Z,85.90
2018-01-03T07:06:51.404Z,85.80
2018-01-03T07:09:18.997Z,85.80
2018-01-03T07:11:46.618Z,85.50
2018-01-03T07:14:14.178Z,85.40
2018-01-03T07:16:41.748Z,85.30
2018-01-03T07:19:09.297Z,85.40
2018-01-03T07:21:36.878Z,85.50
2018-01-03T07:24:04.417Z,85.60
2018-01-03T07:26:31.987Z,85.60
2018-01-03T07:28:59.528Z,85.70
2018-01-03T07:31:27.132Z,85.50
2018-01-03T07:33:54.673Z,85.50
2018-01-03T07:36:22.218Z,85.60
2018-01-03T07:38:49.792Z,85.60
2018-01-03T07:41:17.328Z,85.60
2018-01-03T07:43:44.913Z,85.60
2018-01-03T07:46:12.459Z,85.50
2018-01-03T07:48:40.006Z,85.80
2018-01-03T07:51:07.565Z,85.40
2018-01-03T07:53:35.110Z,85.40
2018-01-03T07:56:02.870Z,85.50
2018-01-03T07:58:30.397Z,85.20
2018-01-03T08:00:58.225Z,85.00
2018-01-03T08:03:25.758Z,85.00
2018-01-03T08:05:53.287Z,85.00
2018-01-03T08:08:20.858Z,84.90
2018-01-03T08:10:49.168Z,84.70
2018-01-03T08:13:16.749Z,84.70
2018-01-03T08:15:44.293Z,84.50
2018-01-03T08:18:11.873Z,84.60
2018-01-03T08:20:39.413Z,84.60
2018-01-03T08:23:07.402Z,84.70
2018-01-03T08:25:34.944Z,84.60
2018-01-03T08:28:02.492Z,84.20
2018-01-03T08:30:30.074Z,84.60
2018-01-03T08:32:57.629Z,84.60
2018-01-03T08:35:25.210Z,84.30
2018-01-03T08:37:52.770Z,84.20
2018-01-03T08:40:20.358Z,84.40
2018-01-03T08:42:47.901Z,84.30
2018-01-03T08:45:16.212Z,85.20
2018-01-03T08:47:43.813Z,84.50
2018-01-03T08:50:11.368Z,84.70
2018-01-03T08:52:38.959Z,84.70
2018-01-03T08:55:07.268Z,85.30
2018-01-03T08:57:35.264Z,84.90
2018-01-03T09:00:02.818Z,85.20
2018-01-03T09:02:30.373Z,85.30
2018-01-03T09:04:57.990Z,85.50
2018-01-03T09:07:25.533Z,85.70
2018-01-03T09:09:53.122Z,85.80
2018-01-03T09:12:20.673Z,86.00
2018-01-03T09:14:49.010Z,86.30
2018-01-03T09:17:16.580Z,86.30
2018-01-03T09:19:44.180Z,86.30
2018-01-03T09:22:11.751Z,86.00
2018-01-03T09:24:39.757Z,86.20
2018-01-03T09:27:07.497Z,86.00
2018-01-03T09:29:35.033Z,85.80
2018-01-03T09:32:02.610Z,85.90
2018-01-03T09:34:30.149Z,85.90
2018-01-03T09:36:57.729Z,86.00
2018-01-03T09:39:25.268Z,86.00
2018-01-03T09:41:52.842Z,85.70
2018-01-03T09:44:20.410Z,85.70
2018-01-03T09:46:47.956Z,85.90
2018-01-03T09:49:15.610Z,86.00
2018-01-03T09:51:43.162Z,86.10
2018-01-03T09:54:10.741Z,86.30
2018-01-03T09:56:38.283Z,86.10
2018-01-03T09:59:06.419Z,86.20
2018-01-03T10:01:33.973Z,86.30
2018-01-03T10:04:01.508Z,86.10
2018-01-03T10:06:29.097Z,85.90
2018-01-03T10:08:56.643Z,85.50
2018-01-03T10:11:24.213Z,85.60
2018-01-03T10:13:51.761Z,85.50
2018-01-03T10:16:19.358Z,85.60
2018-01-03T10:18:46.889Z,85.20
2018-01-03T10:21:14.469Z,85.10
2018-01-03T10:23:43.506Z,85.00
2018-01-03T10:26:11.109Z,85.00
2018-01-03T10:28:38.637Z,84.40
2018-01-03T10:31:06.161Z,84.30
2018-01-03T10:33:33.748Z,84.10
2018-01-03T10:36:01.301Z,83.90
2018-01-03T10:38:28.918Z,83.90
2018-01-03T10:40:57.221Z,83.50
2018-01-03T10:43:24.775Z,83.60
2018-01-03T10:45:53.120Z,82.30
2018-01-03T10:48:20.650Z,82.30
2018-01-03T10:50:48.213Z,82.30
2018-01-03T10:53:15.738Z,82.30
2018-01-03T10:55:43.317Z,82.30
2018-01-03T10:58:10.851Z,82.40
2018-01-03T11:00:38.396Z,82.40
2018-01-03T11:03:06.736Z,82.10
2018-01-03T11:05:34.293Z,81.80
2018-01-03T11:08:01.874Z,82.30
2018-01-03T11:10:30.949Z,82.20
2018-01-03T11:12:58.533Z,82.20
2018-01-03T11:15:26.078Z,82.30
2018-01-03T11:17:54.097Z,82.00
2018-01-03T11:20:21.656Z,81.70
2018-01-03T11:22:49.192Z,81.70
2018-01-03T11:25:17.559Z,81.80
2018-01-03T11:27:45.092Z,81.40
2018-01-03T11:30:12.677Z,81.10
2018-01-03T11:32:41.712Z,81.50
2018-01-03T11:35:09.316Z,81.50
2018-01-03T11:37:36.848Z,81.40
2018-01-03T11:40:04.388Z,81.20
2018-01-03T11:42:31.996Z,81.30
2018-01-03T11:44:59.585Z,81.40
2018-01-03T11:47:27.925Z,81.20
2018-01-03T11:49:55.460Z,81.30
2018-01-03T11:52:23.045Z,81.30
2018-01-03T11:54:50.590Z,81.20
2018-01-03T11:57:18.124Z,81.10
2018-01-03T11:59:45.700Z,81.50
2018-01-03T12:02:13.230Z,81.30
2018-01-03T12:04:41.908Z,80.70
2018-01-03T12:07:10.211Z,80.70
2018-01-03T12:09:37.784Z,80.70
2018-01-03T12:12:05.507Z,80.60
2018-01-03T12:14:34.194Z,80.40
2018-01-03T12:17:01.710Z,80.30
2018-01-03T12:19:29.265Z,80.00
2018-01-03T12:21:56.837Z,79.90
2018-01-03T12:24:24.441Z,80.40
2018-01-03T12:26:52.790Z,84.30
2018-01-03T12:29:20.324Z,84.20
2018-01-03T12:31:48.065Z,81.70
2018-01-03T12:34:15.600Z,87.40
2018-01-03T12:39:16.476Z,91.10
2018-01-03T12:41:44.577Z,91.60
2018-01-03T12:44:12.117Z,92.00
2018-01-03T12:46:39.645Z,92.70
2018-01-03T12:49:07.422Z,93.20
2018-01-03T12:51:34.953Z,93.10
2018-01-03T12:54:02.525Z,93.20
2018-01-03T12:56:30.834Z,93.80
2018-01-03T12:58:58.819Z,93.80
2018-01-03T13:01:26.355Z,93.90
2018-01-03T13:03:53.902Z,93.90
2018-01-03T13:06:21.469Z,94.10
2018-01-03T13:08:49.000Z,94.10
2018-01-03T13:11:16.587Z,94.30
2018-01-03T13:13:44.133Z,94.30
2018-01-03T13:16:11.710Z,94.30
2018-01-03T13:18:40.086Z,94.30
2018-01-03T13:21:08.189Z,94.40
2018-01-03T13:23:35.733Z,94.60
2018-01-03T13:26:03.278Z,94.20
2018-01-03T13:28:30.850Z,94.40
2018-01-03T13:30:58.398Z,94.30
2018-01-03T13:33:25.977Z,94.40
2018-01-03T13:35:53.529Z,94.40
2018-01-03T13:38:21.616Z,94.50
2018-01-03T13:40:49.162Z,94.40
2018-01-03T13:43:16.715Z,94.40
2018-01-03T13:45:44.296Z,94.40
2018-01-03T13:48:11.857Z,94.50
2018-01-03T13:50:39.442Z,94.50
2018-01-03T13:53:08.282Z,94.50
2018-01-03T13:55:37.699Z,94.50
2018-01-03T13:58:05.247Z,94.50
2018-01-03T14:00:32.774Z,94.40
2018-01-03T14:03:00.370Z,94.60
2018-01-03T14:05:27.908Z,94.30
2018-01-03T14:07:55.493Z,94.50
2018-01-03T14:10:23.036Z,94.50
2018-01-03T14:12:51.227Z,94.60
2018-01-03T14:15:18.762Z,94.60
2018-01-03T14:17:46.649Z,94.50
2018-01-03T14:20:14.202Z,94.60
2018-01-03T14:22:41.747Z,94.60
2018-01-03T14:25:09.353Z,94.70
2018-01-03T14:27:36.937Z,94.80
2018-01-03T14:30:05.280Z,94.70
2018-01-03T14:32:32.821Z,94.70
2018-01-03T14:35:00.665Z,94.60
2018-01-03T14:37:28.303Z,94.60
2018-01-03T14:39:56.608Z,94.60
2018-01-03T14:42:24.185Z,94.70
2018-01-03T14:44:51.735Z,94.80
2018-01-03T14:47:19.637Z,94.80
2018-01-03T14:49:47.186Z,94.80
2018-01-03T14:52:14.836Z,94.80
2018-01-03T14:54:42.423Z,94.60
2018-01-03T14:57:09.982Z,94.40
2018-01-03T14:59:37.556Z,94.50
2018-01-03T15:02:05.873Z,94.40
2018-01-03T15:04:33.444Z,94.40
2018-01-03T15:07:00.980Z,94.50
2018-01-03T15:09:29.469Z,94.50
2018-01-03T15:11:57.013Z,94.70
2018-01-03T15:14:24.744Z,94.80
2018-01-03T15:16:52.367Z,94.90
2018-01-03T15:19:19.913Z,94.80
2018-01-03T15:21:47.497Z,94.80
2018-01-03T15:24:15.044Z,94.90
2018-01-03T15:26:42.655Z,94.90
2018-01-03T15:29:10.968Z,95.00
2018-01-03T15:31:38.538Z,94.90
2018-01-03T15:34:06.822Z,95.00
2018-01-03T15:36:34.374Z,95.00
2018-01-03T15:39:01.958Z,94.90
2018-01-03T15:41:29.516Z,95.00
2018-01-03T15:43:57.690Z,95.00
2018-01-03T15:46:25.225Z,95.00
2018-01-03T15:48:52.785Z,95.00
2018-01-03T15:51:20.405Z,95.00
2018-01-03T15:53:47.957Z,95.00
2018-01-03T15:56:16.317Z,95.00
2018-01-03T15:58:43.874Z,95.00
2018-01-03T16:01:14.321Z,95.00
2018-01-03T16:03:41.875Z,95.00
2018-01-03T16:06:10.191Z,95.00
2018-01-03T16:08:37.775Z,95.00
2018-01-03T16:11:05.332Z,95.10
2018-01-03T16:13:32.912Z,95.00
2018-01-03T16:16:00.432Z,95.10
2018-01-03T16:18:28.022Z,95.10
2018-01-03T16:20:55.552Z,95.10
2018-01-03T16:23:23.188Z,95.20
2018-01-03T16:25:51.514Z,95.20
2018-01-03T16:28:19.066Z,95.30
2018-01-03T16:30:46.638Z,95.20
2018-01-03T16:33:14.213Z,95.20
2018-01-03T16:35:41.804Z,95.20
2018-01-03T16:38:09.351Z,95.20
2018-01-03T16:40:37.665Z,95.20
2018-01-03T16:43:05.290Z,95.20
2018-01-03T16:45:32.799Z,95.10
2018-01-03T16:48:00.490Z,95.10
2018-01-03T16:50:28.045Z,95.10
2018-01-03T16:53:01.278Z,95.10
2018-01-03T16:55:28.842Z,95.10
2018-01-03T16:57:56.428Z,95.20
2018-01-03T17:00:23.978Z,95.10
2018-01-03T17:02:51.559Z,95.20
2018-01-03T17:05:19.110Z,95.30
2018-01-03T17:07:46.654Z,95.30
2018-01-03T17:10:14.253Z,95.30
2018-01-03T17:12:41.796Z,95.30
2018-01-03T17:15:09.380Z,95.40
2018-01-03T17:17:36.934Z,95.40
2018-01-03T17:20:04.547Z,95.50
2018-01-03T17:22:32.090Z,95.40
2018-01-03T17:25:00.389Z,95.40
2018-01-03T17:27:28.029Z,95.40
2018-01-03T17:29:56.344Z,95.50
2018-01-03T17:32:23.933Z,95.50
2018-01-03T17:34:51.488Z,95.50
2018-01-03T17:37:19.118Z,95.50
2018-01-03T17:39:46.665Z,95.50
2018-01-03T17:42:14.232Z,95.50
2018-01-03T17:44:41.826Z,95.50
2018-01-03T17:47:09.425Z,95.60
2018-01-03T17:49:37.018Z,95.50
2018-01-03T17:52:04.572Z,95.50
2018-01-03T17:54:33.896Z,95.50
2018-01-03T17:57:01.439Z,95.50
2018-01-03T17:59:28.976Z,95.50
2018-01-03T18:01:56.570Z,95.60
2018-01-03T18:04:24.209Z,95.60
2018-01-03T18:06:51.804Z,95.60
2018-01-03T18:09:19.365Z,95.80
2018-01-03T18:11:46.954Z,95.60
2018-01-03T18:14:15.277Z,95.70
2018-01-03T18:16:42.877Z,95.60
2018-01-03T18:19:10.420Z,95.70
2018-01-03T18:21:38.350Z,95.70
2018-01-03T18:24:06.033Z,95.70
2018-01-03T18:26:33.596Z,95.60
2018-01-03T18:29:01.237Z,95.70
2018-01-03T18:31:28.832Z,95.70
2018-01-03T18:33:57.192Z,95.70
2018-01-03T18:36:24.794Z,95.70
2018-01-03T18:38:53.096Z,95.70
2018-01-03T18:41:20.678Z,95.70
2018-01-03T18:43:48.236Z,95.70
2018-01-03T18:46:15.819Z,95.70
2018-01-03T18:48:43.379Z,95.50
2018-01-03T18:51:11.024Z,95.60
2018-01-03T18:53:38.603Z,95.60
2018-01-03T18:56:06.245Z,95.60
2018-01-03T18:58:33.835Z,95.70
2018-01-03T19:01:02.157Z,96.00
2018-01-03T19:03:29.774Z,95.70
2018-01-03T19:05:57.337Z,95.70
2018-01-03T19:08:25.692Z,95.70
2018-01-03T19:10:53.230Z,95.60
2018-01-03T19:13:20.862Z,95.70
2018-01-03T19:15:48.580Z,95.70
2018-01-03T19:18:16.159Z,95.70
2018-01-03T19:20:43.767Z,95.70
2018-01-03T19:23:11.338Z,95.70
2018-01-03T19:25:38.988Z,95.70
2018-01-03T19:28:06.558Z,95.70
2018-01-03T19:30:34.160Z,95.70
2018-01-03T19:33:01.730Z,95.70
2018-01-03T19:35:29.282Z,95.70
2018-01-03T19:37:57.657Z,95.70
2018-01-03T19:40:25.202Z,95.60
2018-01-03T19:42:52.807Z,95.60
2018-01-03T19:45:20.376Z,95.60
2018-01-03T19:47:48.021Z,95.60
2018-01-03T19:50:16.341Z,95.50
2018-01-03T19:52:43.958Z,95.50
2018-01-03T19:55:12.273Z,95.50
2018-01-03T19:57:39.829Z,95.50
2018-01-03T20:00:07.442Z,95.40
2018-01-03T20:02:35.019Z,95.40
2018-01-03T20:05:03.384Z,95.40
2018-01-03T20:07:31.062Z,95.60
2018-01-03T20:09:58.749Z,95.20
2018-01-03T20:12:26.330Z,95.20
2018-01-03T20:14:53.855Z,95.30
2018-01-03T20:17:21.442Z,95.30
2018-01-03T20:19:49.013Z,95.20
2018-01-03T20:22:16.608Z,95.20
2018-01-03T20:24:44.194Z,95.20
2018-01-03T20:27:11.743Z,95.20
2018-01-03T20:29:39.334Z,95.20
2018-01-03T20:32:06.893Z,95.10
2018-01-03T20:34:34.505Z,95.20
2018-01-03T20:37:02.063Z,95.20
2018-01-03T20:39:30.510Z,94.90
2018-01-03T20:41:58.087Z,94.90
2018-01-03T20:44:25.733Z,95.10
2018-01-03T20:46:53.288Z,95.10
2018-01-03T20:49:20.846Z,95.10
2018-01-03T20:51:48.490Z,95.00
2018-01-03T20:54:16.060Z,95.10
2018-01-03T20:56:43.652Z,94.90
2018-01-03T20:59:11.962Z,95.00
2018-01-03T21:04:15.531Z,94.70
2018-01-03T21:06:43.140Z,94.50
2018-01-03T21:09:10.681Z,94.70
2018-01-03T21:11:39.100Z,94.40
2018-01-03T21:14:06.726Z,94.40
2018-01-03T21:16:35.112Z,94.50
2018-01-03T21:19:02.724Z,94.50
2018-01-03T21:21:30.281Z,94.50
2018-01-03T21:23:58.108Z,94.40
2018-01-03T21:26:25.717Z,94.30
2018-01-03T21:28:53.312Z,94.40
2018-01-03T21:31:21.959Z,94.50
2018-01-03T21:33:49.631Z,94.50
2018-01-03T21:36:17.447Z,94.40
2018-01-03T21:38:45.207Z,94.40
2018-01-03T21:41:12.878Z,94.30
2018-01-03T21:43:40.440Z,94.50
2018-01-03T21:46:08.706Z,94.20
2018-01-03T21:48:36.318Z,94.20
2018-01-03T21:51:03.901Z,94.10
2018-01-03T21:53:31.461Z,94.00
2018-01-03T21:55:59.813Z,94.10
2018-01-03T21:58:28.884Z,93.40
2018-01-03T22:00:56.468Z,93.40
2018-01-03T22:03:24.066Z,93.50
2018-01-03T22:05:51.675Z,93.80
2018-01-03T22:08:19.255Z,93.50
2018-01-03T22:10:46.833Z,93.70
2018-01-03T22:13:14.374Z,93.50
2018-01-03T22:15:42.091Z,93.70
2018-01-03T22:18:09.649Z,93.70
2018-01-03T22:20:37.236Z,93.70
2018-01-03T22:23:04.891Z,93.50
2018-01-03T22:25:32.499Z,93.50
2018-01-03T22:28:00.051Z,93.50
2018-01-03T22:30:28.398Z,93.80
2018-01-03T22:32:55.959Z,93.80
2018-01-03T22:35:23.546Z,93.70
2018-01-03T22:37:51.094Z,93.70
2018-01-03T22:40:18.677Z,93.80
2018-01-03T22:42:46.239Z,93.80
2018-01-03T22:45:14.539Z,93.40
2018-01-03T22:50:15.989Z,93.40
2018-01-03T22:52:43.561Z,92.80
2018-01-03T22:55:11.101Z,93.40
2018-01-03T22:57:39.436Z,92.80
2018-01-03T23:00:07.022Z,92.70
2018-01-03T23:02:35.378Z,93.30
2018-01-03T23:05:02.941Z,93.30
2018-01-03T23:07:30.580Z,92.90
2018-01-03T23:09:58.132Z,92.60
2018-01-03T23:12:25.671Z,92.70
2018-01-03T23:14:53.253Z,93.00
2018-01-03T23:17:20.800Z,93.10
2018-01-03T23:19:48.384Z,93.20
2018-01-03T23:22:15.929Z,93.40
2018-01-03T23:24:43.659Z,92.80
2018-01-03T23:27:11.197Z,93.20
2018-01-03T23:29:39.060Z,92.20
2018-01-03T23:32:06.598Z,92.10
2018-01-03T23:34:34.152Z,91.90
2018-01-03T23:37:01.738Z,92.10
2018-01-03T23:39:29.279Z,92.40
2018-01-03T23:41:56.849Z,92.40
2018-01-03T23:44:24.411Z,92.50
2018-01-03T23:46:52.762Z,92.50
2018-01-03T23:49:20.305Z,92.50
2018-01-03T23:51:47.840Z,92.50
2018-01-03T23:54:15.425Z,91.80
2018-01-03T23:56:43.145Z,91.90
2018-01-03T23:59:10.731Z,92.20
